This is the latest recevied weather packets stored in our database for station/object WMKJ. If no packets are shown the sender has not sent any weather packets the latest 10 day(s).
| Time | Temp. | Humidity | Pressure | Rain* | Wind** | Luminosity | Snow |
|---|---|---|---|---|---|---|---|
| 1777785022 | 33.89° C | 59% | 1008 hPa | - | - | - | - |
| 1777781431 | 32.78° C | 59% | 1009 hPa | - | - | - | - |
| 1777777824 | 30.56° C | 70% | 1010 hPa | - | - | - | - |
| 1777774227 | 30° C | 74% | 1010 hPa | - | - | - | - |
| 1777770622 | 27.78° C | 83% | 1009 hPa | - | - | - | - |
| 1777767594 | 25° C | 94% | 1008 hPa | - | - | - | - |
| 1777767031 | 25° C | 94% | 1008 hPa | - | - | - | - |
| 1777763423 | 23.89° C | 94% | 1008 hPa | - | - | - | - |
| 1777759822 | 23.89° C | 94% | 1007 hPa | - | - | - | - |
| 1777756221 | 23.89° C | 94% | 1007 hPa | - | - | - | - |
| 1777752621 | 25° C | 88% | 1007 hPa | - | - | - | - |
| 1777749035 | 25° C | 88% | 1008 hPa | - | - | - | - |
| 1777745421 | 25° C | 88% | 1008 hPa | - | - | - | - |
| 1777741821 | 25° C | 94% | 1009 hPa | - | - | - | - |
| 1777740621 | 25° C | 94% | 1010 hPa | - | - | - | - |
| 1777740036 | 23.89° C | 97% | 1010.7 hPa | - | - | - | - |
| 1777738221 | 25° C | 94% | 1010 hPa | - | - | - | - |
| 1777734621 | 25.56° C | 88% | 1009 hPa | - | - | - | - |
| 1777731032 | 25.56° C | 88% | 1009 hPa | - | - | - | - |
| 1777727421 | 25.56° C | 88% | 1008 hPa | - | - | - | - |
| 1777723825 | 26.67° C | 88% | 1007 hPa | - | - | - | - |
| 1777720222 | 26.67° C | 88% | 1006 hPa | - | - | - | - |
| 1777716631 | 28.89° C | 74% | 1006 hPa | - | - | - | - |
| 1777715992 | 28.89° C | 74% | 1006 hPa | - | - | - | - |
| 1777713020 | 28.89° C | 79% | 1006 hPa | - | - | - | - |
* Rain since midnight (hover to see other rain measurements)
** Current wind speed in m/s (hover to see current wind gust speed)